Clay Center, Ohio
Current Conditions -  °F | °C
As of 12:53 AM on Saturday 25 Oct 2014 (Local Time) from KTDZ Reporting Station
Clear Clear  
Wind Chill: 45°   Ceiling: Unl
Heat Index: 47°   Visibility: 8mi
Dew Point: 42°   Wind: 5mph
Humidity: 83%   Direction: 180°S
Pressure: 29.97"   Gusts: NA
Location:  41.56°N, 83.36°W
Report Text: KTDZ 250453Z AUTO 18004KT 8SM CLR 08/06 A2997 RMK AO2 SLP148 T00830056 401610028 TSNO
Loading
Personal Weather Stations






























Interactive Weather Map
Tropical Storm Tracking
New forecast layout! Learn more

10-Day Weather Forecast

Advertisements
Track Severe Weather on mobile